Hauptseite
METAR-TAF:

METAR-TAF

Flughäfen :

Saarbrücken, Deutschland

Flughafen Saarbrücken

Breite: 49-13N, Länge: 007-07E, Höhe: 322 m

Beobachtung

Neuester Wetterbericht von vor 12 Minuten, um 11:20 UTC
Wind 15 kt aus Ost/Nordost, variierte zwischen Nord/Nordost und Ost
Temperatur 13°C
Luftfeuchtigkeit 47%
Luftdruck 1023 hPa
Sichtweite 10 km oder mehr
keine Wolken unter 1500 m und keine Kumulonimbus oder Gewitterwolken

METAR: EDDR 251120Z 06015KT 020V100 CAVOK 13/02 Q1023 NOSIG

Zeit: 12:32 (11:32 UTC)

Prognose

Neuester Wetterbericht von vor 6 Stunden und 32 Minuten, um 05:00 UTC
Gültige Prognose vom 25 um 06 UTC bis 26 um 06 UTC
Wind 12 kt aus Ost/Nordost
Sichtweite 10 km oder mehr
keine Wolken unter 1500 m und keine Kumulonimbus oder Gewitterwolken
Zeitweise
vom 25 um 06 UTC bis 25 um 18 UTC
Wind 15 kt aus Ost/Nordost, Böen bis zu 30 kt

TAF: EDDR 250500Z 2506/2606 06012KT CAVOK TEMPO 2506/2518 06015G30KT

Wetterbeobachtungen und Prognosen von mehr als 4000 Flughäfen (METAR und TAF Bericht).

Die verfügbaren Stationen werden durch gelbe und rote Markierungen auf der Karte dargestellt.

Führen Sie die Maus auf sie, um den Namen der Station zu sehen.

Darauf klicken, um die Beobachtung von Wetterbeobachtungen und Prognosen zu sehen.

Um die Karte zu ändern : klicken Sie auf den grünen Tasten mit einem schwarzen Kreuz Zum Vergrößern, auf den grünen Button mit einem Gedankenstrich zu verkleinern, oder auf die grünen Pfeile für benachbarte Karten.


METAR-TAF: